sensor_id;sensor_type;location;lat;lon;timestamp;P1;durP1;ratioP1;P2;durP2;ratioP2
78148;SDS011;67396;42.664;23.382;2023-04-03T00:02:14;2.92;;;1.70;;
78148;SDS011;67396;42.664;23.382;2023-04-03T00:04:42;4.00;;;2.17;;
78148;SDS011;67396;42.664;23.382;2023-04-03T00:07:08;3.00;;;1.60;;
78148;SDS011;67396;42.664;23.382;2023-04-03T00:09:33;4.03;;;2.22;;
78148;SDS011;67396;42.664;23.382;2023-04-03T00:11:58;3.75;;;2.30;;
78148;SDS011;67396;42.664;23.382;2023-04-03T00:14:25;4.65;;;2.30;;
78148;SDS011;67396;42.664;23.382;2023-04-03T00:16:52;4.90;;;2.35;;
78148;SDS011;67396;42.664;23.382;2023-04-03T00:19:18;2.30;;;1.70;;
78148;SDS011;67396;42.664;23.382;2023-04-03T00:21:43;3.13;;;1.92;;
78148;SDS011;67396;42.664;23.382;2023-04-03T00:24:09;6.15;;;2.22;;
78148;SDS011;67396;42.664;23.382;2023-04-03T00:26:38;4.30;;;2.10;;
78148;SDS011;67396;42.664;23.382;2023-04-03T00:29:03;5.90;;;2.22;;
78148;SDS011;67396;42.664;23.382;2023-04-03T00:31:31;4.18;;;2.10;;
78148;SDS011;67396;42.664;23.382;2023-04-03T00:33:57;3.25;;;2.20;;
78148;SDS011;67396;42.664;23.382;2023-04-03T00:36:23;4.13;;;2.30;;
78148;SDS011;67396;42.664;23.382;2023-04-03T00:38:48;4.55;;;2.20;;
78148;SDS011;67396;42.664;23.382;2023-04-03T00:41:14;3.08;;;1.90;;
78148;SDS011;67396;42.664;23.382;2023-04-03T00:43:39;4.25;;;2.15;;
78148;SDS011;67396;42.664;23.382;2023-04-03T00:46:07;3.70;;;2.00;;
78148;SDS011;67396;42.664;23.382;2023-04-03T00:48:38;3.55;;;2.08;;
78148;SDS011;67396;42.664;23.382;2023-04-03T00:51:08;4.80;;;2.13;;
78148;SDS011;67396;42.664;23.382;2023-04-03T00:53:41;3.17;;;2.25;;
78148;SDS011;67396;42.664;23.382;2023-04-03T00:56:12;12.02;;;6.97;;
78148;SDS011;67396;42.664;23.382;2023-04-03T00:58:42;15.27;;;8.23;;
78148;SDS011;67396;42.664;23.382;2023-04-03T01:01:15;29.10;;;13.98;;
78148;SDS011;67396;42.664;23.382;2023-04-03T01:03:46;5.57;;;3.28;;
78148;SDS011;67396;42.664;23.382;2023-04-03T01:06:11;12.43;;;6.47;;
78148;SDS011;67396;42.664;23.382;2023-04-03T01:08:41;6.50;;;3.47;;
78148;SDS011;67396;42.664;23.382;2023-04-03T01:11:06;7.05;;;3.60;;
78148;SDS011;67396;42.664;23.382;2023-04-03T01:13:32;9.95;;;4.32;;
78148;SDS011;67396;42.664;23.382;2023-04-03T01:16:02;7.78;;;3.95;;
78148;SDS011;67396;42.664;23.382;2023-04-03T01:18:29;3.95;;;2.50;;
78148;SDS011;67396;42.664;23.382;2023-04-03T01:21:09;7.45;;;3.75;;
78148;SDS011;67396;42.664;23.382;2023-04-03T01:26:34;5.97;;;3.00;;
78148;SDS011;67396;42.664;23.382;2023-04-03T01:29:00;4.68;;;2.20;;
78148;SDS011;67396;42.664;23.382;2023-04-03T01:34:00;5.70;;;4.07;;
78148;SDS011;67396;42.664;23.382;2023-04-03T01:36:28;7.30;;;4.50;;
78148;SDS011;67396;42.664;23.382;2023-04-03T01:38:55;9.90;;;4.93;;
78148;SDS011;67396;42.664;23.382;2023-04-03T01:41:22;12.43;;;6.32;;
78148;SDS011;67396;42.664;23.382;2023-04-03T01:43:48;26.58;;;13.65;;
78148;SDS011;67396;42.664;23.382;2023-04-03T01:46:14;29.92;;;11.10;;
78148;SDS011;67396;42.664;23.382;2023-04-03T01:48:43;17.25;;;10.57;;
78148;SDS011;67396;42.664;23.382;2023-04-03T01:51:09;15.32;;;7.38;;
78148;SDS011;67396;42.664;23.382;2023-04-03T01:53:35;18.85;;;9.07;;
78148;SDS011;67396;42.664;23.382;2023-04-03T01:56:01;14.98;;;8.70;;
78148;SDS011;67396;42.664;23.382;2023-04-03T01:58:27;10.80;;;4.82;;
78148;SDS011;67396;42.664;23.382;2023-04-03T02:00:52;10.02;;;4.85;;
78148;SDS011;67396;42.664;23.382;2023-04-03T02:03:18;5.20;;;2.90;;
78148;SDS011;67396;42.664;23.382;2023-04-03T02:05:43;3.67;;;2.33;;
78148;SDS011;67396;42.664;23.382;2023-04-03T02:08:09;4.80;;;2.67;;
78148;SDS011;67396;42.664;23.382;2023-04-03T02:10:35;4.35;;;2.85;;
78148;SDS011;67396;42.664;23.382;2023-04-03T02:13:00;5.70;;;2.60;;
78148;SDS011;67396;42.664;23.382;2023-04-03T02:15:26;3.60;;;2.40;;
78148;SDS011;67396;42.664;23.382;2023-04-03T02:17:52;5.93;;;2.80;;
78148;SDS011;67396;42.664;23.382;2023-04-03T02:20:17;4.63;;;2.58;;
78148;SDS011;67396;42.664;23.382;2023-04-03T02:22:43;6.15;;;2.50;;
78148;SDS011;67396;42.664;23.382;2023-04-03T02:25:09;12.32;;;4.43;;
78148;SDS011;67396;42.664;23.382;2023-04-03T02:27:35;7.18;;;5.10;;
78148;SDS011;67396;42.664;23.382;2023-04-03T02:30:01;8.15;;;4.93;;
78148;SDS011;67396;42.664;23.382;2023-04-03T02:32:27;9.63;;;5.20;;
78148;SDS011;67396;42.664;23.382;2023-04-03T02:34:53;8.32;;;4.80;;
78148;SDS011;67396;42.664;23.382;2023-04-03T02:37:18;7.93;;;4.60;;
78148;SDS011;67396;42.664;23.382;2023-04-03T02:39:44;6.40;;;3.80;;
78148;SDS011;67396;42.664;23.382;2023-04-03T02:42:09;7.45;;;4.13;;
78148;SDS011;67396;42.664;23.382;2023-04-03T02:44:35;4.28;;;3.20;;
78148;SDS011;67396;42.664;23.382;2023-04-03T02:47:01;6.68;;;3.78;;
78148;SDS011;67396;42.664;23.382;2023-04-03T02:49:27;7.20;;;4.35;;
78148;SDS011;67396;42.664;23.382;2023-04-03T02:51:53;7.03;;;3.65;;
78148;SDS011;67396;42.664;23.382;2023-04-03T02:54:18;6.28;;;2.97;;
78148;SDS011;67396;42.664;23.382;2023-04-03T02:56:44;4.53;;;3.25;;
78148;SDS011;67396;42.664;23.382;2023-04-03T02:59:09;5.38;;;2.83;;
78148;SDS011;67396;42.664;23.382;2023-04-03T03:01:34;4.15;;;2.65;;
78148;SDS011;67396;42.664;23.382;2023-04-03T03:04:00;9.05;;;3.60;;
78148;SDS011;67396;42.664;23.382;2023-04-03T03:06:26;6.03;;;3.13;;
78148;SDS011;67396;42.664;23.382;2023-04-03T03:08:52;5.45;;;2.65;;
78148;SDS011;67396;42.664;23.382;2023-04-03T03:11:17;5.50;;;3.55;;
78148;SDS011;67396;42.664;23.382;2023-04-03T03:13:43;4.75;;;3.08;;
78148;SDS011;67396;42.664;23.382;2023-04-03T03:16:09;4.45;;;2.88;;
78148;SDS011;67396;42.664;23.382;2023-04-03T03:18:35;7.50;;;3.45;;
78148;SDS011;67396;42.664;23.382;2023-04-03T03:21:01;6.82;;;3.10;;
78148;SDS011;67396;42.664;23.382;2023-04-03T03:23:29;3.90;;;2.38;;
78148;SDS011;67396;42.664;23.382;2023-04-03T03:26:00;6.85;;;2.83;;
78148;SDS011;67396;42.664;23.382;2023-04-03T03:28:29;4.88;;;2.55;;
78148;SDS011;67396;42.664;23.382;2023-04-03T03:30:54;5.75;;;2.00;;
78148;SDS011;67396;42.664;23.382;2023-04-03T03:33:20;4.90;;;2.50;;
78148;SDS011;67396;42.664;23.382;2023-04-03T03:35:45;3.78;;;2.42;;
78148;SDS011;67396;42.664;23.382;2023-04-03T03:38:11;4.70;;;2.63;;
78148;SDS011;67396;42.664;23.382;2023-04-03T03:40:37;6.18;;;3.03;;
78148;SDS011;67396;42.664;23.382;2023-04-03T03:43:02;11.40;;;3.15;;
78148;SDS011;67396;42.664;23.382;2023-04-03T03:45:28;5.78;;;3.55;;
78148;SDS011;67396;42.664;23.382;2023-04-03T03:47:53;7.22;;;3.33;;
78148;SDS011;67396;42.664;23.382;2023-04-03T03:50:19;5.35;;;2.60;;
78148;SDS011;67396;42.664;23.382;2023-04-03T03:52:45;5.90;;;2.72;;
78148;SDS011;67396;42.664;23.382;2023-04-03T03:55:11;9.30;;;2.42;;
78148;SDS011;67396;42.664;23.382;2023-04-03T03:57:36;3.88;;;2.67;;
78148;SDS011;67396;42.664;23.382;2023-04-03T04:00:02;8.10;;;2.80;;
78148;SDS011;67396;42.664;23.382;2023-04-03T04:02:31;5.63;;;2.92;;
78148;SDS011;67396;42.664;23.382;2023-04-03T04:04:59;6.68;;;3.22;;
78148;SDS011;67396;42.664;23.382;2023-04-03T04:07:24;7.88;;;3.17;;
78148;SDS011;67396;42.664;23.382;2023-04-03T04:09:54;11.05;;;2.97;;
78148;SDS011;67396;42.664;23.382;2023-04-03T04:12:20;5.95;;;3.05;;
78148;SDS011;67396;42.664;23.382;2023-04-03T04:14:45;6.25;;;2.95;;
78148;SDS011;67396;42.664;23.382;2023-04-03T04:17:12;3.95;;;2.60;;
78148;SDS011;67396;42.664;23.382;2023-04-03T04:19:38;8.18;;;2.85;;
78148;SDS011;67396;42.664;23.382;2023-04-03T04:22:03;4.82;;;2.97;;
78148;SDS011;67396;42.664;23.382;2023-04-03T04:24:29;4.43;;;2.83;;
78148;SDS011;67396;42.664;23.382;2023-04-03T04:26:54;9.48;;;3.00;;
78148;SDS011;67396;42.664;23.382;2023-04-03T04:29:20;10.75;;;3.72;;
78148;SDS011;67396;42.664;23.382;2023-04-03T04:31:45;11.90;;;2.65;;
78148;SDS011;67396;42.664;23.382;2023-04-03T04:34:11;11.88;;;2.95;;
78148;SDS011;67396;42.664;23.382;2023-04-03T04:36:38;8.05;;;3.05;;
78148;SDS011;67396;42.664;23.382;2023-04-03T04:39:03;11.30;;;3.22;;
78148;SDS011;67396;42.664;23.382;2023-04-03T04:41:30;6.05;;;3.72;;
78148;SDS011;67396;42.664;23.382;2023-04-03T04:43:56;5.18;;;2.78;;
78148;SDS011;67396;42.664;23.382;2023-04-03T04:46:22;7.18;;;2.45;;
78148;SDS011;67396;42.664;23.382;2023-04-03T04:48:48;5.53;;;3.00;;
78148;SDS011;67396;42.664;23.382;2023-04-03T04:51:13;8.25;;;3.97;;
78148;SDS011;67396;42.664;23.382;2023-04-03T04:53:46;9.75;;;3.40;;
78148;SDS011;67396;42.664;23.382;2023-04-03T04:56:13;8.32;;;3.20;;
78148;SDS011;67396;42.664;23.382;2023-04-03T04:58:39;3.78;;;3.00;;
78148;SDS011;67396;42.664;23.382;2023-04-03T05:01:06;8.35;;;3.22;;
78148;SDS011;67396;42.664;23.382;2023-04-03T05:03:33;12.65;;;3.25;;
78148;SDS011;67396;42.664;23.382;2023-04-03T05:05:58;8.05;;;3.45;;
78148;SDS011;67396;42.664;23.382;2023-04-03T05:08:24;5.25;;;2.83;;
78148;SDS011;67396;42.664;23.382;2023-04-03T05:10:50;9.05;;;3.70;;
78148;SDS011;67396;42.664;23.382;2023-04-03T05:13:16;8.80;;;3.85;;
78148;SDS011;67396;42.664;23.382;2023-04-03T05:15:42;8.75;;;3.90;;
78148;SDS011;67396;42.664;23.382;2023-04-03T05:18:07;6.13;;;3.35;;
78148;SDS011;67396;42.664;23.382;2023-04-03T05:20:35;6.82;;;4.32;;
78148;SDS011;67396;42.664;23.382;2023-04-03T05:23:01;6.38;;;4.13;;
78148;SDS011;67396;42.664;23.382;2023-04-03T05:25:27;9.25;;;4.03;;
78148;SDS011;67396;42.664;23.382;2023-04-03T05:27:52;10.40;;;4.18;;
78148;SDS011;67396;42.664;23.382;2023-04-03T05:30:18;11.45;;;4.65;;
78148;SDS011;67396;42.664;23.382;2023-04-03T05:32:43;8.30;;;3.80;;
78148;SDS011;67396;42.664;23.382;2023-04-03T05:35:09;9.20;;;3.88;;
78148;SDS011;67396;42.664;23.382;2023-04-03T05:37:35;11.25;;;3.95;;
78148;SDS011;67396;42.664;23.382;2023-04-03T05:40:04;9.50;;;4.53;;
78148;SDS011;67396;42.664;23.382;2023-04-03T05:42:30;7.43;;;4.03;;
78148;SDS011;67396;42.664;23.382;2023-04-03T05:44:56;9.68;;;4.10;;
78148;SDS011;67396;42.664;23.382;2023-04-03T05:47:22;8.80;;;4.78;;
78148;SDS011;67396;42.664;23.382;2023-04-03T05:49:47;9.73;;;4.15;;
78148;SDS011;67396;42.664;23.382;2023-04-03T05:52:23;14.32;;;5.00;;
78148;SDS011;67396;42.664;23.382;2023-04-03T05:54:52;14.95;;;4.50;;
78148;SDS011;67396;42.664;23.382;2023-04-03T05:57:17;8.95;;;5.22;;
78148;SDS011;67396;42.664;23.382;2023-04-03T05:59:44;9.75;;;6.05;;
78148;SDS011;67396;42.664;23.382;2023-04-03T06:02:18;12.20;;;5.18;;
78148;SDS011;67396;42.664;23.382;2023-04-03T06:04:44;11.82;;;5.88;;
78148;SDS011;67396;42.664;23.382;2023-04-03T06:07:14;13.60;;;6.07;;
78148;SDS011;67396;42.664;23.382;2023-04-03T06:09:42;32.25;;;12.60;;
78148;SDS011;67396;42.664;23.382;2023-04-03T06:12:08;28.23;;;15.18;;
78148;SDS011;67396;42.664;23.382;2023-04-03T06:14:34;45.50;;;24.65;;
78148;SDS011;67396;42.664;23.382;2023-04-03T06:17:00;52.13;;;25.85;;
78148;SDS011;67396;42.664;23.382;2023-04-03T06:19:26;43.88;;;24.17;;
78148;SDS011;67396;42.664;23.382;2023-04-03T06:21:52;42.60;;;22.38;;
78148;SDS011;67396;42.664;23.382;2023-04-03T06:24:18;59.60;;;32.03;;
78148;SDS011;67396;42.664;23.382;2023-04-03T06:26:46;61.63;;;36.58;;
78148;SDS011;67396;42.664;23.382;2023-04-03T06:29:12;63.30;;;36.60;;
78148;SDS011;67396;42.664;23.382;2023-04-03T06:31:38;61.97;;;38.13;;
78148;SDS011;67396;42.664;23.382;2023-04-03T06:34:04;53.38;;;34.70;;
78148;SDS011;67396;42.664;23.382;2023-04-03T06:39:06;35.78;;;23.25;;
78148;SDS011;67396;42.664;23.382;2023-04-03T06:41:33;32.80;;;20.63;;
78148;SDS011;67396;42.664;23.382;2023-04-03T06:43:58;33.38;;;20.45;;
78148;SDS011;67396;42.664;23.382;2023-04-03T06:46:25;33.03;;;20.25;;
78148;SDS011;67396;42.664;23.382;2023-04-03T06:48:52;31.13;;;19.63;;
78148;SDS011;67396;42.664;23.382;2023-04-03T06:51:20;30.90;;;18.90;;
78148;SDS011;67396;42.664;23.382;2023-04-03T06:53:48;31.10;;;16.48;;
78148;SDS011;67396;42.664;23.382;2023-04-03T06:56:14;33.78;;;15.95;;
78148;SDS011;67396;42.664;23.382;2023-04-03T06:58:41;27.63;;;13.93;;
78148;SDS011;67396;42.664;23.382;2023-04-03T07:01:09;28.48;;;13.00;;
78148;SDS011;67396;42.664;23.382;2023-04-03T07:03:37;21.63;;;12.32;;
78148;SDS011;67396;42.664;23.382;2023-04-03T07:06:06;30.17;;;14.25;;
78148;SDS011;67396;42.664;23.382;2023-04-03T07:08:34;22.50;;;12.80;;
78148;SDS011;67396;42.664;23.382;2023-04-03T07:11:00;22.77;;;12.95;;
78148;SDS011;67396;42.664;23.382;2023-04-03T07:13:26;26.50;;;13.30;;
78148;SDS011;67396;42.664;23.382;2023-04-03T07:15:52;22.83;;;13.23;;
78148;SDS011;67396;42.664;23.382;2023-04-03T07:18:21;30.05;;;12.65;;
78148;SDS011;67396;42.664;23.382;2023-04-03T07:20:50;22.88;;;12.95;;
78148;SDS011;67396;42.664;23.382;2023-04-03T07:23:18;25.27;;;13.77;;
78148;SDS011;67396;42.664;23.382;2023-04-03T07:25:47;29.08;;;15.70;;
78148;SDS011;67396;42.664;23.382;2023-04-03T07:28:15;31.05;;;14.88;;
78148;SDS011;67396;42.664;23.382;2023-04-03T07:30:48;30.13;;;14.60;;
78148;SDS011;67396;42.664;23.382;2023-04-03T07:33:19;27.95;;;15.75;;
78148;SDS011;67396;42.664;23.382;2023-04-03T07:35:49;27.23;;;14.55;;
78148;SDS011;67396;42.664;23.382;2023-04-03T07:38:15;26.33;;;13.05;;
78148;SDS011;67396;42.664;23.382;2023-04-03T07:40:45;29.10;;;13.88;;
78148;SDS011;67396;42.664;23.382;2023-04-03T07:43:15;24.20;;;14.02;;
78148;SDS011;67396;42.664;23.382;2023-04-03T07:45:40;21.92;;;12.43;;
78148;SDS011;67396;42.664;23.382;2023-04-03T07:48:06;28.00;;;13.18;;
78148;SDS011;67396;42.664;23.382;2023-04-03T07:50:32;22.20;;;13.65;;
78148;SDS011;67396;42.664;23.382;2023-04-03T07:52:57;19.77;;;12.73;;
78148;SDS011;67396;42.664;23.382;2023-04-03T07:55:23;23.00;;;13.60;;
78148;SDS011;67396;42.664;23.382;2023-04-03T07:57:49;20.90;;;12.15;;
78148;SDS011;67396;42.664;23.382;2023-04-03T08:00:15;19.42;;;12.38;;
78148;SDS011;67396;42.664;23.382;2023-04-03T08:02:44;21.83;;;13.73;;
78148;SDS011;67396;42.664;23.382;2023-04-03T08:05:15;24.60;;;13.15;;
78148;SDS011;67396;42.664;23.382;2023-04-03T08:07:41;24.17;;;12.43;;
78148;SDS011;67396;42.664;23.382;2023-04-03T08:10:08;22.65;;;13.20;;
78148;SDS011;67396;42.664;23.382;2023-04-03T08:12:33;28.58;;;13.52;;
78148;SDS011;67396;42.664;23.382;2023-04-03T08:14:59;21.40;;;13.63;;
78148;SDS011;67396;42.664;23.382;2023-04-03T08:17:26;28.17;;;13.75;;
78148;SDS011;67396;42.664;23.382;2023-04-03T08:19:54;24.67;;;14.43;;
78148;SDS011;67396;42.664;23.382;2023-04-03T08:22:20;28.00;;;13.20;;
78148;SDS011;67396;42.664;23.382;2023-04-03T08:24:48;21.00;;;12.88;;
78148;SDS011;67396;42.664;23.382;2023-04-03T08:27:15;22.38;;;12.77;;
78148;SDS011;67396;42.664;23.382;2023-04-03T08:29:40;23.45;;;13.55;;
78148;SDS011;67396;42.664;23.382;2023-04-03T08:32:07;26.02;;;12.05;;
78148;SDS011;67396;42.664;23.382;2023-04-03T08:34:32;26.15;;;13.10;;
78148;SDS011;67396;42.664;23.382;2023-04-03T08:37:05;25.95;;;14.98;;
78148;SDS011;67396;42.664;23.382;2023-04-03T08:39:30;23.25;;;12.88;;
78148;SDS011;67396;42.664;23.382;2023-04-03T08:42:05;25.35;;;12.88;;
78148;SDS011;67396;42.664;23.382;2023-04-03T08:47:47;23.20;;;13.00;;
78148;SDS011;67396;42.664;23.382;2023-04-03T08:50:30;27.73;;;14.02;;
78148;SDS011;67396;42.664;23.382;2023-04-03T08:53:01;31.70;;;15.68;;
78148;SDS011;67396;42.664;23.382;2023-04-03T08:55:40;36.00;;;15.27;;
78148;SDS011;67396;42.664;23.382;2023-04-03T08:58:11;21.08;;;12.60;;
78148;SDS011;67396;42.664;23.382;2023-04-03T09:00:49;24.95;;;13.05;;
78148;SDS011;67396;42.664;23.382;2023-04-03T09:03:19;29.30;;;13.73;;
78148;SDS011;67396;42.664;23.382;2023-04-03T09:08:26;20.65;;;12.82;;
78148;SDS011;67396;42.664;23.382;2023-04-03T09:11:42;29.02;;;13.77;;
78148;SDS011;67396;42.664;23.382;2023-04-03T09:19:49;24.38;;;12.73;;
78148;SDS011;67396;42.664;23.382;2023-04-03T09:21:58;26.15;;;11.80;;
78148;SDS011;67396;42.664;23.382;2023-04-03T09:24:40;21.77;;;12.25;;
78148;SDS011;67396;42.664;23.382;2023-04-03T09:27:07;17.15;;;10.85;;
78148;SDS011;67396;42.664;23.382;2023-04-03T09:29:45;22.13;;;11.82;;
78148;SDS011;67396;42.664;23.382;2023-04-03T09:34:56;26.08;;;12.88;;
78148;SDS011;67396;42.664;23.382;2023-04-03T09:37:38;19.33;;;11.25;;
78148;SDS011;67396;42.664;23.382;2023-04-03T09:40:30;17.58;;;10.07;;
78148;SDS011;67396;42.664;23.382;2023-04-03T09:45:45;22.42;;;9.02;;
78148;SDS011;67396;42.664;23.382;2023-04-03T09:50:38;19.55;;;8.98;;
78148;SDS011;67396;42.664;23.382;2023-04-03T09:53:44;12.88;;;8.48;;
78148;SDS011;67396;42.664;23.382;2023-04-03T09:58:42;10.70;;;5.97;;
78148;SDS011;67396;42.664;23.382;2023-04-03T10:01:28;12.55;;;6.53;;
78148;SDS011;67396;42.664;23.382;2023-04-03T10:04:28;13.35;;;6.07;;
78148;SDS011;67396;42.664;23.382;2023-04-03T10:06:54;13.02;;;6.88;;
78148;SDS011;67396;42.664;23.382;2023-04-03T10:09:22;11.32;;;6.32;;
78148;SDS011;67396;42.664;23.382;2023-04-03T10:12:00;11.02;;;6.38;;
78148;SDS011;67396;42.664;23.382;2023-04-03T10:14:34;15.48;;;7.32;;
78148;SDS011;67396;42.664;23.382;2023-04-03T10:17:47;15.70;;;6.57;;
78148;SDS011;67396;42.664;23.382;2023-04-03T10:20:33;14.65;;;8.65;;
78148;SDS011;67396;42.664;23.382;2023-04-03T10:28:57;16.38;;;7.70;;
78148;SDS011;67396;42.664;23.382;2023-04-03T10:34:30;10.32;;;5.18;;
78148;SDS011;67396;42.664;23.382;2023-04-03T10:39:54;10.38;;;4.88;;
78148;SDS011;67396;42.664;23.382;2023-04-03T10:42:34;10.75;;;4.90;;
78148;SDS011;67396;42.664;23.382;2023-04-03T10:45:28;10.65;;;4.88;;
78148;SDS011;67396;42.664;23.382;2023-04-03T10:48:15;9.32;;;4.38;;
78148;SDS011;67396;42.664;23.382;2023-04-03T10:51:10;7.20;;;4.22;;
78148;SDS011;67396;42.664;23.382;2023-04-03T10:56:57;8.45;;;4.45;;
78148;SDS011;67396;42.664;23.382;2023-04-03T10:59:28;11.68;;;4.75;;
78148;SDS011;67396;42.664;23.382;2023-04-03T11:02:36;11.73;;;4.40;;
78148;SDS011;67396;42.664;23.382;2023-04-03T11:10:53;6.43;;;2.33;;
78148;SDS011;67396;42.664;23.382;2023-04-03T11:13:46;6.07;;;2.67;;
78148;SDS011;67396;42.664;23.382;2023-04-03T11:16:30;6.13;;;2.90;;
78148;SDS011;67396;42.664;23.382;2023-04-03T11:19:02;7.65;;;3.00;;
78148;SDS011;67396;42.664;23.382;2023-04-03T11:24:22;8.18;;;2.53;;
78148;SDS011;67396;42.664;23.382;2023-04-03T11:27:03;4.43;;;2.90;;
78148;SDS011;67396;42.664;23.382;2023-04-03T11:29:35;5.55;;;2.65;;
78148;SDS011;67396;42.664;23.382;2023-04-03T11:34:59;7.40;;;2.60;;
78148;SDS011;67396;42.664;23.382;2023-04-03T11:40:04;5.10;;;2.38;;
78148;SDS011;67396;42.664;23.382;2023-04-03T12:08:52;4.82;;;2.88;;
78148;SDS011;67396;42.664;23.382;2023-04-03T12:11:28;4.10;;;2.80;;
78148;SDS011;67396;42.664;23.382;2023-04-03T12:21:22;6.20;;;2.30;;
78148;SDS011;67396;42.664;23.382;2023-04-03T12:51:13;7.22;;;4.32;;
78148;SDS011;67396;42.664;23.382;2023-04-03T12:53:49;8.73;;;4.80;;
78148;SDS011;67396;42.664;23.382;2023-04-03T12:59:24;9.70;;;4.65;;
78148;SDS011;67396;42.664;23.382;2023-04-03T13:02:02;9.57;;;5.38;;
78148;SDS011;67396;42.664;23.382;2023-04-03T13:04:29;7.18;;;5.18;;
78148;SDS011;67396;42.664;23.382;2023-04-03T13:06:58;7.00;;;5.65;;
78148;SDS011;67396;42.664;23.382;2023-04-03T13:09:26;6.28;;;5.05;;
78148;SDS011;67396;42.664;23.382;2023-04-03T13:11:57;10.35;;;5.70;;
78148;SDS011;67396;42.664;23.382;2023-04-03T13:14:26;8.68;;;4.97;;
78148;SDS011;67396;42.664;23.382;2023-04-03T13:17:03;8.68;;;5.65;;
78148;SDS011;67396;42.664;23.382;2023-04-03T13:19:31;6.43;;;4.90;;
78148;SDS011;67396;42.664;23.382;2023-04-03T13:24:28;8.05;;;5.25;;
78148;SDS011;67396;42.664;23.382;2023-04-03T13:27:05;7.20;;;5.30;;
78148;SDS011;67396;42.664;23.382;2023-04-03T13:29:32;8.38;;;5.82;;
78148;SDS011;67396;42.664;23.382;2023-04-03T13:32:01;9.68;;;5.43;;
78148;SDS011;67396;42.664;23.382;2023-04-03T13:34:35;13.70;;;5.85;;
78148;SDS011;67396;42.664;23.382;2023-04-03T13:37:03;8.75;;;6.07;;
78148;SDS011;67396;42.664;23.382;2023-04-03T13:39:33;11.20;;;6.75;;
78148;SDS011;67396;42.664;23.382;2023-04-03T13:42:23;8.90;;;5.85;;
78148;SDS011;67396;42.664;23.382;2023-04-03T13:44:49;7.18;;;4.85;;
78148;SDS011;67396;42.664;23.382;2023-04-03T13:47:37;6.03;;;4.32;;
78148;SDS011;67396;42.664;23.382;2023-04-03T13:55:33;6.55;;;4.78;;
78148;SDS011;67396;42.664;23.382;2023-04-03T14:03:22;7.78;;;4.55;;
78148;SDS011;67396;42.664;23.382;2023-04-03T14:05:51;8.07;;;5.22;;
78148;SDS011;67396;42.664;23.382;2023-04-03T14:08:17;7.40;;;5.10;;
78148;SDS011;67396;42.664;23.382;2023-04-03T14:10:53;6.65;;;4.85;;
78148;SDS011;67396;42.664;23.382;2023-04-03T14:13:20;5.63;;;4.75;;
78148;SDS011;67396;42.664;23.382;2023-04-03T14:15:56;6.07;;;4.07;;
78148;SDS011;67396;42.664;23.382;2023-04-03T14:28:57;7.35;;;4.28;;
78148;SDS011;67396;42.664;23.382;2023-04-03T14:39:23;4.97;;;4.10;;
78148;SDS011;67396;42.664;23.382;2023-04-03T14:41:53;8.52;;;3.85;;
78148;SDS011;67396;42.664;23.382;2023-04-03T14:44:18;7.55;;;5.07;;
78148;SDS011;67396;42.664;23.382;2023-04-03T14:46:46;5.55;;;4.40;;
78148;SDS011;67396;42.664;23.382;2023-04-03T14:55:06;6.38;;;3.65;;
78148;SDS011;67396;42.664;23.382;2023-04-03T15:06:40;4.20;;;2.97;;
78148;SDS011;67396;42.664;23.382;2023-04-03T15:09:10;4.13;;;3.70;;
78148;SDS011;67396;42.664;23.382;2023-04-03T15:14:14;5.05;;;3.30;;
78148;SDS011;67396;42.664;23.382;2023-04-03T15:16:40;7.68;;;3.55;;
78148;SDS011;67396;42.664;23.382;2023-04-03T15:19:09;8.30;;;3.80;;
78148;SDS011;67396;42.664;23.382;2023-04-03T15:21:38;7.38;;;4.07;;
78148;SDS011;67396;42.664;23.382;2023-04-03T15:24:04;4.80;;;3.75;;
78148;SDS011;67396;42.664;23.382;2023-04-03T15:26:32;5.25;;;3.33;;
78148;SDS011;67396;42.664;23.382;2023-04-03T15:28:57;4.18;;;3.42;;
78148;SDS011;67396;42.664;23.382;2023-04-03T15:31:29;3.88;;;2.92;;
78148;SDS011;67396;42.664;23.382;2023-04-03T15:40:53;3.50;;;2.55;;
78148;SDS011;67396;42.664;23.382;2023-04-03T15:43:24;3.28;;;2.63;;
78148;SDS011;67396;42.664;23.382;2023-04-03T15:48:51;3.75;;;3.40;;
78148;SDS011;67396;42.664;23.382;2023-04-03T15:53:57;4.05;;;3.38;;
78148;SDS011;67396;42.664;23.382;2023-04-03T15:56:34;6.32;;;3.85;;
78148;SDS011;67396;42.664;23.382;2023-04-03T15:59:08;4.85;;;3.35;;
78148;SDS011;67396;42.664;23.382;2023-04-03T16:01:37;5.60;;;3.75;;
78148;SDS011;67396;42.664;23.382;2023-04-03T16:04:14;5.20;;;4.13;;
78148;SDS011;67396;42.664;23.382;2023-04-03T16:07:02;6.13;;;4.25;;
78148;SDS011;67396;42.664;23.382;2023-04-03T16:09:37;6.82;;;4.47;;
78148;SDS011;67396;42.664;23.382;2023-04-03T16:12:05;7.35;;;4.30;;
78148;SDS011;67396;42.664;23.382;2023-04-03T16:14:31;7.70;;;4.90;;
78148;SDS011;67396;42.664;23.382;2023-04-03T16:20:15;6.63;;;4.30;;
78148;SDS011;67396;42.664;23.382;2023-04-03T16:22:41;5.70;;;4.30;;
78148;SDS011;67396;42.664;23.382;2023-04-03T16:25:07;7.07;;;4.97;;
78148;SDS011;67396;42.664;23.382;2023-04-03T16:27:33;6.68;;;3.67;;
78148;SDS011;67396;42.664;23.382;2023-04-03T16:30:03;7.68;;;4.35;;
78148;SDS011;67396;42.664;23.382;2023-04-03T16:32:30;5.53;;;4.50;;
78148;SDS011;67396;42.664;23.382;2023-04-03T16:34:59;6.82;;;4.80;;
78148;SDS011;67396;42.664;23.382;2023-04-03T16:37:31;5.85;;;4.57;;
78148;SDS011;67396;42.664;23.382;2023-04-03T16:40:06;5.78;;;4.43;;
78148;SDS011;67396;42.664;23.382;2023-04-03T16:42:36;6.50;;;4.60;;
78148;SDS011;67396;42.664;23.382;2023-04-03T16:45:04;9.15;;;5.47;;
78148;SDS011;67396;42.664;23.382;2023-04-03T16:47:31;7.97;;;5.55;;
78148;SDS011;67396;42.664;23.382;2023-04-03T16:49:56;8.48;;;5.72;;
78148;SDS011;67396;42.664;23.382;2023-04-03T16:52:35;7.20;;;5.07;;
78148;SDS011;67396;42.664;23.382;2023-04-03T16:55:00;6.38;;;4.60;;
78148;SDS011;67396;42.664;23.382;2023-04-03T16:57:26;5.40;;;3.53;;
78148;SDS011;67396;42.664;23.382;2023-04-03T16:59:52;5.88;;;4.03;;
78148;SDS011;67396;42.664;23.382;2023-04-03T17:05:27;6.50;;;4.60;;
78148;SDS011;67396;42.664;23.382;2023-04-03T17:10:34;6.22;;;3.40;;
78148;SDS011;67396;42.664;23.382;2023-04-03T17:13:00;5.03;;;3.40;;
78148;SDS011;67396;42.664;23.382;2023-04-03T17:20:39;6.18;;;3.63;;
78148;SDS011;67396;42.664;23.382;2023-04-03T17:23:07;5.40;;;3.70;;
78148;SDS011;67396;42.664;23.382;2023-04-03T17:25:36;6.20;;;3.88;;
78148;SDS011;67396;42.664;23.382;2023-04-03T17:28:01;5.35;;;3.50;;
78148;SDS011;67396;42.664;23.382;2023-04-03T17:30:26;4.22;;;3.20;;
78148;SDS011;67396;42.664;23.382;2023-04-03T17:32:53;3.92;;;2.10;;
78148;SDS011;67396;42.664;23.382;2023-04-03T17:35:19;3.78;;;2.45;;
78148;SDS011;67396;42.664;23.382;2023-04-03T17:37:46;5.53;;;2.95;;
78148;SDS011;67396;42.664;23.382;2023-04-03T17:40:13;7.97;;;3.78;;
78148;SDS011;67396;42.664;23.382;2023-04-03T17:42:41;5.05;;;2.85;;
78148;SDS011;67396;42.664;23.382;2023-04-03T17:45:07;4.60;;;3.15;;
78148;SDS011;67396;42.664;23.382;2023-04-03T17:47:33;4.93;;;2.95;;
78148;SDS011;67396;42.664;23.382;2023-04-03T17:49:59;5.40;;;2.88;;
78148;SDS011;67396;42.664;23.382;2023-04-03T17:52:24;4.70;;;3.25;;
78148;SDS011;67396;42.664;23.382;2023-04-03T17:54:52;4.38;;;3.20;;
78148;SDS011;67396;42.664;23.382;2023-04-03T17:57:18;6.28;;;3.35;;